createdAt,value
2023-05-21T00:02:19.861Z,6.67
2023-05-21T00:04:46.522Z,10.83
2023-05-21T00:07:13.401Z,6.97
2023-05-21T00:09:39.904Z,10.10
2023-05-21T00:12:09.721Z,7.47
2023-05-21T00:14:36.542Z,12.73
2023-05-21T00:17:03.000Z,9.77
2023-05-21T00:19:29.634Z,7.60
2023-05-21T00:21:57.581Z,8.50
2023-05-21T00:24:24.027Z,10.20
2023-05-21T00:26:50.495Z,12.33
2023-05-21T00:29:16.976Z,8.13
2023-05-21T00:31:43.443Z,7.40
2023-05-21T00:34:09.889Z,9.93
2023-05-21T00:36:36.316Z,7.60
2023-05-21T00:39:04.265Z,9.67
2023-05-21T00:41:30.694Z,12.53
2023-05-21T00:43:57.230Z,7.10
2023-05-21T00:46:24.013Z,5.60
2023-05-21T00:48:50.970Z,9.57
2023-05-21T00:51:18.471Z,8.73
2023-05-21T00:53:46.631Z,8.43
2023-05-21T00:56:13.286Z,7.33
2023-05-21T00:58:40.607Z,6.67
2023-05-21T01:01:07.254Z,10.03
2023-05-21T01:03:38.524Z,10.73
2023-05-21T01:06:06.106Z,9.13
2023-05-21T01:08:34.519Z,9.07
2023-05-21T01:11:02.584Z,8.63
2023-05-21T01:13:29.593Z,9.03
2023-05-21T01:15:58.032Z,10.07
2023-05-21T01:18:24.544Z,9.00
2023-05-21T01:20:52.397Z,9.17
2023-05-21T01:23:19.845Z,8.17
2023-05-21T01:25:47.069Z,10.73
2023-05-21T01:28:13.933Z,10.50
2023-05-21T01:30:41.367Z,8.80
2023-05-21T01:33:15.597Z,5.47
2023-05-21T01:36:10.154Z,7.37
2023-05-21T01:38:43.081Z,9.60
2023-05-21T01:41:13.792Z,11.40
2023-05-21T01:43:42.535Z,11.00
2023-05-21T01:46:10.816Z,12.23
2023-05-21T01:48:37.977Z,8.67
2023-05-21T01:51:06.071Z,13.40
2023-05-21T01:53:32.552Z,10.97
2023-05-21T01:55:59.343Z,7.50
2023-05-21T01:58:26.021Z,8.60
2023-05-21T02:00:52.445Z,9.93
2023-05-21T02:03:20.123Z,9.23
2023-05-21T02:05:47.213Z,11.83
2023-05-21T02:08:15.029Z,9.53
2023-05-21T02:10:41.471Z,9.00
2023-05-21T02:13:08.019Z,11.27
2023-05-21T02:15:34.798Z,10.33
2023-05-21T02:18:01.669Z,8.40
2023-05-21T02:20:28.156Z,9.83
2023-05-21T02:22:54.598Z,7.37
2023-05-21T02:25:21.051Z,6.60
2023-05-21T02:27:47.615Z,7.63
2023-05-21T02:30:15.531Z,8.90
2023-05-21T02:32:43.164Z,11.67
2023-05-21T02:35:13.152Z,7.13
2023-05-21T02:37:40.492Z,6.87
2023-05-21T02:40:08.012Z,9.10
2023-05-21T02:42:36.496Z,10.20
2023-05-21T02:45:02.985Z,8.90
2023-05-21T02:47:29.411Z,8.13
2023-05-21T02:50:01.480Z,9.27
2023-05-21T02:52:28.090Z,20.17
2023-05-21T02:54:54.561Z,10.10
2023-05-21T02:57:21.009Z,11.70
2023-05-21T02:59:47.441Z,12.70
2023-05-21T03:02:13.937Z,10.13
2023-05-21T03:04:46.337Z,10.30
2023-05-21T03:07:14.325Z,11.00
2023-05-21T03:09:44.349Z,13.30
2023-05-21T03:12:11.113Z,6.27
2023-05-21T03:14:37.776Z,11.90
2023-05-21T03:17:07.197Z,7.07
2023-05-21T03:19:37.301Z,11.67
2023-05-21T03:22:04.150Z,9.43
2023-05-21T03:24:30.806Z,10.17
2023-05-21T03:26:57.551Z,11.37
2023-05-21T03:29:23.992Z,11.03
2023-05-21T03:31:52.560Z,8.70
2023-05-21T03:34:20.060Z,7.47
2023-05-21T03:36:47.253Z,10.67
2023-05-21T03:39:13.826Z,15.10
2023-05-21T03:41:40.677Z,7.97
2023-05-21T03:44:07.134Z,7.03
2023-05-21T03:46:33.803Z,10.93
2023-05-21T03:49:00.582Z,9.20
2023-05-21T03:51:27.525Z,10.30
2023-05-21T03:53:53.995Z,9.40
2023-05-21T03:56:21.545Z,8.77
2023-05-21T03:58:48.085Z,9.13
2023-05-21T04:01:14.606Z,7.93
2023-05-21T04:03:41.305Z,8.67
2023-05-21T04:06:10.042Z,8.93
2023-05-21T04:08:37.980Z,9.43
2023-05-21T04:11:04.472Z,8.70
2023-05-21T04:13:30.900Z,10.00
2023-05-21T04:15:57.366Z,12.70
2023-05-21T04:18:25.922Z,10.67
2023-05-21T04:20:52.869Z,11.90
2023-05-21T04:23:19.367Z,5.50
2023-05-21T04:25:50.511Z,9.63
2023-05-21T04:28:20.091Z,8.00
2023-05-21T04:30:47.325Z,11.80
2023-05-21T04:33:17.944Z,9.97
2023-05-21T04:35:47.217Z,12.43
2023-05-21T04:38:14.165Z,8.70
2023-05-21T04:40:40.704Z,12.83
2023-05-21T04:43:08.062Z,9.50
2023-05-21T04:45:34.590Z,8.33
2023-05-21T04:48:01.207Z,12.27
2023-05-21T04:50:30.845Z,12.80
2023-05-21T04:52:58.686Z,9.70
2023-05-21T04:55:25.846Z,8.83
2023-05-21T04:57:52.770Z,8.20
2023-05-21T05:00:19.929Z,6.60
2023-05-21T05:02:46.729Z,9.03
2023-05-21T05:05:13.228Z,8.13
2023-05-21T05:07:39.636Z,10.60
2023-05-21T05:10:06.548Z,7.27
2023-05-21T05:12:32.962Z,7.53
2023-05-21T05:14:59.410Z,10.47
2023-05-21T05:17:26.035Z,10.47
2023-05-21T05:19:53.154Z,9.80
2023-05-21T05:22:19.611Z,10.30
2023-05-21T05:24:46.094Z,7.83
2023-05-21T05:27:12.547Z,8.90
2023-05-21T05:29:38.970Z,8.00
2023-05-21T05:32:05.812Z,7.83
2023-05-21T05:34:32.377Z,8.43
2023-05-21T05:36:58.867Z,9.13
2023-05-21T05:39:25.540Z,7.53
2023-05-21T05:41:52.001Z,7.17
2023-05-21T05:44:18.519Z,8.07
2023-05-21T05:46:45.145Z,10.40
2023-05-21T05:49:11.691Z,10.73
2023-05-21T05:51:38.123Z,7.83
2023-05-21T05:54:04.646Z,10.10
2023-05-21T05:56:31.073Z,7.60
2023-05-21T05:58:59.176Z,8.07
2023-05-21T06:01:26.216Z,11.40
2023-05-21T06:03:53.324Z,6.23
2023-05-21T06:06:19.945Z,11.17
2023-05-21T06:08:46.512Z,9.03
2023-05-21T06:11:13.073Z,11.57
2023-05-21T06:13:39.634Z,7.87
2023-05-21T06:16:06.408Z,7.00
2023-05-21T06:18:32.884Z,8.73
2023-05-21T06:20:59.295Z,9.00
2023-05-21T06:23:25.762Z,7.43
2023-05-21T06:25:52.193Z,9.20
2023-05-21T06:28:18.676Z,9.60
2023-05-21T06:30:45.210Z,11.33
2023-05-21T06:33:12.789Z,7.90
2023-05-21T06:35:40.190Z,8.83
2023-05-21T06:38:06.625Z,7.33
2023-05-21T06:40:34.158Z,7.33
2023-05-21T06:43:01.124Z,11.90
2023-05-21T06:45:27.540Z,8.40
2023-05-21T06:47:53.976Z,11.20
2023-05-21T06:50:20.506Z,11.03
2023-05-21T06:52:46.949Z,12.47
2023-05-21T06:55:13.378Z,8.27
2023-05-21T06:57:39.817Z,9.77
2023-05-21T07:00:08.398Z,11.30
2023-05-21T07:02:34.978Z,13.43
2023-05-21T07:05:01.493Z,10.53
2023-05-21T07:07:28.152Z,11.07
2023-05-21T07:09:54.625Z,14.50
2023-05-21T07:12:21.019Z,12.90
2023-05-21T07:14:47.527Z,12.90
2023-05-21T07:17:13.999Z,11.47
2023-05-21T07:19:40.500Z,14.17
2023-05-21T07:22:07.243Z,10.47
2023-05-21T07:24:33.697Z,10.37
2023-05-21T07:27:00.289Z,15.10
2023-05-21T07:29:27.329Z,14.33
2023-05-21T07:31:53.724Z,16.10
2023-05-21T07:34:20.262Z,14.03
2023-05-21T07:36:46.714Z,13.13
2023-05-21T07:39:13.188Z,14.57
2023-05-21T07:41:39.664Z,12.30
2023-05-21T07:44:06.198Z,13.00
2023-05-21T07:46:32.651Z,12.73
2023-05-21T07:48:59.128Z,14.13
2023-05-21T07:51:26.260Z,15.10
2023-05-21T07:53:55.010Z,12.67
2023-05-21T07:56:21.732Z,13.73
2023-05-21T07:58:48.409Z,14.77
2023-05-21T08:01:14.889Z,14.23
2023-05-21T08:03:41.515Z,13.83
2023-05-21T08:06:08.065Z,18.17
2023-05-21T08:08:34.507Z,18.53
2023-05-21T08:11:01.840Z,13.20
2023-05-21T08:13:28.297Z,18.33
2023-05-21T08:15:54.909Z,14.03
2023-05-21T08:18:23.719Z,15.07
2023-05-21T08:20:50.469Z,17.77
2023-05-21T08:23:16.933Z,11.93
2023-05-21T08:25:43.364Z,14.57
2023-05-21T08:28:09.773Z,17.20
2023-05-21T08:30:36.202Z,14.93
2023-05-21T08:33:02.717Z,14.23
2023-05-21T08:35:29.236Z,12.10
2023-05-21T08:37:55.649Z,15.23
2023-05-21T08:40:22.171Z,14.90
2023-05-21T08:42:49.718Z,16.43
2023-05-21T08:45:23.633Z,15.63
2023-05-21T08:47:57.418Z,14.47
2023-05-21T08:50:26.817Z,17.13
2023-05-21T08:52:55.217Z,15.67
2023-05-21T08:55:23.437Z,16.73
2023-05-21T08:57:50.606Z,16.90
2023-05-21T09:00:17.303Z,15.37
2023-05-21T09:02:44.611Z,17.03
2023-05-21T09:05:12.220Z,15.03
2023-05-21T09:07:44.568Z,14.37
2023-05-21T09:10:13.115Z,13.63
2023-05-21T09:12:40.106Z,16.27
2023-05-21T09:15:07.519Z,16.67
2023-05-21T09:17:34.022Z,15.57
2023-05-21T09:20:14.556Z,15.67
2023-05-21T09:22:42.873Z,14.40
2023-05-21T09:25:11.226Z,14.00
2023-05-21T09:27:38.570Z,14.80
2023-05-21T09:30:09.607Z,18.93
2023-05-21T09:32:36.142Z,18.17
2023-05-21T09:35:13.341Z,18.80
2023-05-21T09:37:47.831Z,18.60
2023-05-21T09:40:15.184Z,16.60
2023-05-21T09:42:54.655Z,13.90
2023-05-21T09:45:22.347Z,16.77
2023-05-21T09:47:49.876Z,15.67
2023-05-21T09:50:22.985Z,16.50
2023-05-21T09:52:52.700Z,15.03
2023-05-21T09:55:22.959Z,17.83
2023-05-21T09:57:50.700Z,15.23
2023-05-21T10:00:24.600Z,17.30
2023-05-21T10:02:55.823Z,14.83
2023-05-21T10:05:26.361Z,19.77
2023-05-21T10:07:54.377Z,20.07
2023-05-21T10:10:22.615Z,17.50
2023-05-21T10:12:55.308Z,17.50
2023-05-21T10:15:24.173Z,19.20
2023-05-21T10:17:52.277Z,16.23
2023-05-21T10:20:18.916Z,18.90
2023-05-21T10:22:45.669Z,16.07
2023-05-21T10:25:13.171Z,18.63
2023-05-21T10:27:39.968Z,17.97
2023-05-21T10:30:06.890Z,15.93
2023-05-21T10:32:33.977Z,19.57
2023-05-21T10:35:02.258Z,18.13
2023-05-21T10:37:29.133Z,17.57
2023-05-21T10:39:56.516Z,18.93
2023-05-21T10:43:00.360Z,17.93
2023-05-21T10:45:54.095Z,16.20
2023-05-21T10:48:44.760Z,21.17
2023-05-21T10:51:24.247Z,17.83
2023-05-21T10:54:28.539Z,16.60
2023-05-21T10:57:13.438Z,16.23
2023-05-21T10:59:39.800Z,17.30
2023-05-21T11:02:07.029Z,18.93
2023-05-21T11:04:34.964Z,16.53
2023-05-21T11:07:02.044Z,17.47
2023-05-21T11:09:28.509Z,19.37
2023-05-21T11:11:59.030Z,16.53
2023-05-21T11:14:26.734Z,21.20
2023-05-21T11:16:53.243Z,17.00
2023-05-21T11:19:19.754Z,18.33
2023-05-21T11:21:54.011Z,18.00
2023-05-21T11:24:20.568Z,19.17
2023-05-21T11:27:01.536Z,18.57
2023-05-21T11:29:40.251Z,20.67
2023-05-21T11:32:10.999Z,20.30
2023-05-21T11:34:46.019Z,16.37
2023-05-21T11:37:18.772Z,16.90
2023-05-21T11:39:45.580Z,17.67
2023-05-21T11:42:12.196Z,16.60
2023-05-21T11:44:42.705Z,14.77
2023-05-21T11:47:10.752Z,13.70
2023-05-21T11:49:37.916Z,16.07
2023-05-21T11:52:08.651Z,17.73
2023-05-21T11:54:44.048Z,14.37
2023-05-21T11:57:10.552Z,19.80
2023-05-21T11:59:37.072Z,16.43
2023-05-21T12:02:04.001Z,15.17
2023-05-21T12:04:31.356Z,14.33
2023-05-21T12:06:58.548Z,14.53
2023-05-21T12:09:25.102Z,15.53
2023-05-21T12:11:51.741Z,16.60
2023-05-21T12:14:18.240Z,17.50
2023-05-21T12:16:44.850Z,18.57
2023-05-21T12:19:11.440Z,17.47
2023-05-21T12:21:38.049Z,16.67
2023-05-21T12:24:04.715Z,13.53
2023-05-21T12:26:33.173Z,14.43
2023-05-21T12:28:59.751Z,13.47
2023-05-21T12:31:27.566Z,16.27
2023-05-21T12:33:54.161Z,14.27
2023-05-21T12:36:29.292Z,18.73
2023-05-21T12:38:56.384Z,16.77
2023-05-21T12:41:23.102Z,13.30
2023-05-21T12:43:50.812Z,18.43
2023-05-21T12:46:18.825Z,14.93
2023-05-21T12:48:57.392Z,17.13
2023-05-21T12:51:23.824Z,13.33
2023-05-21T12:53:50.248Z,13.53
2023-05-21T12:56:16.666Z,14.27
2023-05-21T12:58:43.496Z,15.03
2023-05-21T13:01:11.158Z,15.90
2023-05-21T13:03:38.445Z,14.40
2023-05-21T13:06:08.946Z,17.43
2023-05-21T13:08:35.467Z,16.63
2023-05-21T13:11:05.388Z,17.37
2023-05-21T13:13:31.969Z,14.80
2023-05-21T13:16:00.575Z,13.90
2023-05-21T13:18:27.249Z,21.33
2023-05-21T13:20:53.794Z,15.77
2023-05-21T13:23:20.487Z,14.90
2023-05-21T13:25:46.906Z,15.93
2023-05-21T13:28:15.305Z,17.90
2023-05-21T13:30:41.801Z,13.27
2023-05-21T13:33:08.387Z,14.83
2023-05-21T13:35:35.269Z,15.20
2023-05-21T13:38:02.059Z,17.40
2023-05-21T13:40:28.781Z,14.35
2023-05-21T13:42:55.251Z,16.60
2023-05-21T13:45:21.718Z,15.13
2023-05-21T13:47:48.736Z,16.90
2023-05-21T13:50:15.531Z,14.35
2023-05-21T13:52:42.174Z,13.07
2023-05-21T13:55:09.412Z,14.05
2023-05-21T13:57:36.006Z,15.40
2023-05-21T14:00:03.595Z,13.93
2023-05-21T14:02:30.252Z,13.93
2023-05-21T14:04:57.278Z,12.45
2023-05-21T14:07:23.707Z,16.02
2023-05-21T14:09:50.403Z,12.48
2023-05-21T14:12:17.099Z,16.45
2023-05-21T14:14:43.674Z,13.35
2023-05-21T14:17:10.283Z,14.82
2023-05-21T14:19:36.741Z,13.88
2023-05-21T14:24:29.566Z,19.50
2023-05-21T14:26:55.989Z,11.65
2023-05-21T14:29:22.457Z,13.57
2023-05-21T14:31:49.015Z,15.52
2023-05-21T14:34:15.544Z,11.50
2023-05-21T14:36:42.021Z,15.07
2023-05-21T14:39:08.502Z,12.82
2023-05-21T14:41:38.692Z,12.00
2023-05-21T14:44:05.557Z,14.20
2023-05-21T14:46:32.543Z,13.77
2023-05-21T14:49:00.156Z,13.40
2023-05-21T14:51:26.641Z,17.08
2023-05-21T14:53:53.157Z,15.00
2023-05-21T14:56:22.226Z,13.95
2023-05-21T15:28:12.233Z,13.43
2023-05-21T15:30:38.967Z,11.63
2023-05-21T15:33:05.442Z,15.57
2023-05-21T15:35:32.050Z,13.13
2023-05-21T15:37:58.603Z,14.23
2023-05-21T15:40:26.863Z,12.38
2023-05-21T15:42:53.946Z,10.52
2023-05-21T15:45:20.641Z,11.10
2023-05-21T15:47:47.252Z,12.75
2023-05-21T15:50:13.845Z,12.27
2023-05-21T15:52:41.845Z,12.05
2023-05-21T15:55:08.782Z,14.02
2023-05-21T15:57:35.327Z,13.00
2023-05-21T16:00:01.926Z,11.55
2023-05-21T16:02:31.334Z,15.32
2023-05-21T16:04:57.862Z,13.75
2023-05-21T16:07:47.697Z,12.20
2023-05-21T16:10:19.831Z,13.00
2023-05-21T16:12:50.323Z,11.00
2023-05-21T16:15:16.877Z,15.10
2023-05-21T16:17:43.417Z,14.10
2023-05-21T16:20:10.409Z,12.02
2023-05-21T16:22:36.937Z,11.95
2023-05-21T16:27:50.830Z,14.70
2023-05-21T16:30:17.549Z,13.70
2023-05-21T16:32:53.083Z,13.40
2023-05-21T16:35:19.602Z,12.80
2023-05-21T16:37:46.270Z,13.65
2023-05-21T16:40:18.512Z,11.85
2023-05-21T16:42:45.054Z,15.23
2023-05-21T16:45:19.468Z,13.05
2023-05-21T16:47:52.555Z,16.50
2023-05-21T16:50:22.248Z,13.05
2023-05-21T16:52:48.747Z,14.00
2023-05-21T16:55:15.228Z,16.17
2023-05-21T16:57:41.697Z,14.43
2023-05-21T17:00:08.687Z,12.75
2023-05-21T17:02:43.150Z,15.35
2023-05-21T17:05:09.682Z,13.13
2023-05-21T17:07:36.148Z,11.57
2023-05-21T17:10:03.010Z,14.02
2023-05-21T17:12:29.541Z,12.73
2023-05-21T17:14:56.014Z,13.90
2023-05-21T17:17:22.573Z,11.40
2023-05-21T17:19:49.012Z,14.15
2023-05-21T17:22:19.251Z,12.10
2023-05-21T17:24:49.467Z,12.27
2023-05-21T17:27:16.472Z,13.07
2023-05-21T17:29:42.975Z,18.67
2023-05-21T17:32:10.343Z,15.45
2023-05-21T17:34:37.335Z,13.85
2023-05-21T17:37:03.888Z,11.52
2023-05-21T17:39:30.657Z,13.57
2023-05-21T17:41:57.425Z,14.05
2023-05-21T17:44:24.071Z,12.75
2023-05-21T17:46:51.165Z,17.33
2023-05-21T17:49:18.372Z,19.88
2023-05-21T17:51:44.952Z,14.68
2023-05-21T17:54:11.748Z,13.60
2023-05-21T17:56:41.088Z,15.48
2023-05-21T17:59:11.672Z,12.30
2023-05-21T18:01:39.654Z,19.13
2023-05-21T18:04:12.238Z,13.35
2023-05-21T18:06:39.641Z,14.77
2023-05-21T18:09:08.002Z,13.13
2023-05-21T18:11:34.713Z,13.80
2023-05-21T18:14:01.318Z,14.67
2023-05-21T18:16:30.405Z,16.17
2023-05-21T18:18:57.275Z,14.00
2023-05-21T18:21:23.861Z,14.63
2023-05-21T18:23:50.303Z,15.03
2023-05-21T18:26:16.747Z,13.63
2023-05-21T18:28:43.202Z,13.40
2023-05-21T18:31:09.633Z,19.58
2023-05-21T18:33:36.278Z,15.80
2023-05-21T18:36:02.934Z,13.97
2023-05-21T18:38:29.495Z,18.40
2023-05-21T18:40:56.097Z,18.47
2023-05-21T18:43:22.826Z,15.73
2023-05-21T18:45:49.291Z,13.63
2023-05-21T18:48:16.126Z,13.40
2023-05-21T18:50:42.608Z,14.73
2023-05-21T18:53:10.453Z,15.07
2023-05-21T18:55:36.880Z,15.20
2023-05-21T18:58:03.348Z,14.13
2023-05-21T19:00:29.898Z,15.30
2023-05-21T19:02:56.527Z,13.73
2023-05-21T19:05:23.235Z,13.67
2023-05-21T19:07:49.685Z,14.40
2023-05-21T19:10:16.195Z,16.67
2023-05-21T19:12:43.528Z,14.73
2023-05-21T19:15:10.618Z,14.57
2023-05-21T19:17:39.025Z,13.73
2023-05-21T19:20:10.018Z,16.37
2023-05-21T19:22:37.200Z,15.80
2023-05-21T19:25:04.299Z,20.87
2023-05-21T19:27:30.971Z,15.17
2023-05-21T19:29:57.446Z,13.40
2023-05-21T19:32:23.992Z,13.67
2023-05-21T19:34:51.573Z,13.80
2023-05-21T19:37:18.239Z,14.57
2023-05-21T19:39:49.440Z,14.70
2023-05-21T19:42:17.307Z,16.20
2023-05-21T19:44:44.084Z,12.23
2023-05-21T19:47:10.699Z,15.50
2023-05-21T19:49:37.206Z,18.80
2023-05-21T19:52:04.603Z,12.53
2023-05-21T19:54:31.183Z,20.73
2023-05-21T19:56:57.710Z,15.17
2023-05-21T19:59:24.196Z,15.17
2023-05-21T20:01:51.752Z,15.37
2023-05-21T20:04:18.393Z,16.33
2023-05-21T20:06:45.009Z,16.00
2023-05-21T20:09:13.272Z,13.13
2023-05-21T20:11:39.879Z,13.80
2023-05-21T20:14:06.407Z,14.83
2023-05-21T20:16:33.374Z,17.33
2023-05-21T20:19:01.658Z,15.37
2023-05-21T20:21:29.570Z,17.50
2023-05-21T20:23:56.074Z,22.00
2023-05-21T20:26:23.236Z,12.37
2023-05-21T20:28:49.766Z,17.77
2023-05-21T20:31:16.278Z,16.10
2023-05-21T20:33:43.054Z,16.63
2023-05-21T20:36:09.580Z,15.47
2023-05-21T20:38:37.997Z,20.27
2023-05-21T20:41:04.669Z,15.17
2023-05-21T20:43:31.310Z,14.73
2023-05-21T20:45:59.916Z,15.80
2023-05-21T20:48:29.468Z,15.87
2023-05-21T20:50:57.465Z,12.00
2023-05-21T20:53:24.753Z,14.10
2023-05-21T20:55:52.609Z,15.00
2023-05-21T20:58:19.091Z,14.87
2023-05-21T21:00:48.394Z,16.00
2023-05-21T21:03:17.703Z,16.63
2023-05-21T21:05:44.604Z,13.20
2023-05-21T21:08:11.080Z,18.67
2023-05-21T21:10:38.559Z,17.80
2023-05-21T21:13:07.123Z,16.33
2023-05-21T21:15:34.093Z,15.40
2023-05-21T21:18:00.750Z,15.07
2023-05-21T21:20:27.543Z,14.67
2023-05-21T21:22:54.061Z,16.87
2023-05-21T21:25:21.071Z,17.90
2023-05-21T21:27:47.485Z,16.17
2023-05-21T21:30:14.013Z,16.83
2023-05-21T21:32:41.143Z,14.67
2023-05-21T21:35:07.968Z,15.57
2023-05-21T21:37:34.577Z,14.43
2023-05-21T21:40:01.021Z,16.27
2023-05-21T21:42:27.517Z,16.20
2023-05-21T21:44:54.236Z,11.57
2023-05-21T21:47:20.729Z,15.27
2023-05-21T21:49:48.064Z,14.13
2023-05-21T21:52:14.939Z,16.67
2023-05-21T21:54:41.625Z,13.73
2023-05-21T21:57:08.193Z,14.20
2023-05-21T21:59:37.916Z,14.67
2023-05-21T22:02:04.453Z,16.27
2023-05-21T22:04:30.906Z,11.87
2023-05-21T22:06:57.397Z,11.67
2023-05-21T22:09:23.877Z,13.97
2023-05-21T22:11:50.810Z,13.13
2023-05-21T22:14:18.177Z,13.77
2023-05-21T22:16:45.244Z,15.83
2023-05-21T22:19:12.904Z,15.97
2023-05-21T22:21:39.438Z,14.77
2023-05-21T22:24:06.198Z,12.10
2023-05-21T22:26:32.958Z,11.77
2023-05-21T22:28:59.927Z,13.30
2023-05-21T22:31:26.833Z,14.73
2023-05-21T22:33:53.300Z,11.60
2023-05-21T22:36:19.733Z,13.33
2023-05-21T22:38:46.368Z,10.90
2023-05-21T22:41:12.989Z,13.43
2023-05-21T22:43:39.479Z,13.07
2023-05-21T22:46:06.030Z,12.33
2023-05-21T22:48:34.415Z,15.13
2023-05-21T22:51:01.664Z,10.80
2023-05-21T22:53:28.309Z,13.10
2023-05-21T22:55:54.746Z,11.93
2023-05-21T22:58:21.251Z,11.83
2023-05-21T23:00:48.066Z,11.27
2023-05-21T23:03:14.656Z,10.63
2023-05-21T23:05:41.345Z,10.60
2023-05-21T23:08:07.921Z,12.80
2023-05-21T23:10:35.418Z,13.23
2023-05-21T23:13:01.957Z,14.27
2023-05-21T23:15:29.768Z,9.00
2023-05-21T23:17:57.001Z,9.77
2023-05-21T23:20:24.876Z,9.83
2023-05-21T23:22:51.914Z,11.30
2023-05-21T23:25:18.408Z,11.40
2023-05-21T23:27:44.994Z,13.30
2023-05-21T23:30:12.042Z,11.90
2023-05-21T23:32:39.006Z,10.43
2023-05-21T23:35:05.952Z,10.93
2023-05-21T23:37:32.402Z,8.07
2023-05-21T23:39:58.856Z,9.50
2023-05-21T23:42:25.296Z,14.37
2023-05-21T23:44:51.974Z,10.10
2023-05-21T23:47:18.411Z,9.63
2023-05-21T23:49:44.860Z,11.70
2023-05-21T23:52:13.433Z,9.40
2023-05-21T23:54:39.885Z,11.43
2023-05-21T23:57:06.334Z,11.20
2023-05-21T23:59:32.812Z,11.57
